Time;durP1;ratioP1;P1;durP2;ratioP2;P2;SDS_P1;SDS_P2;PMS_P1;PMS_P2;Temp;Humidity;BMP_temperature;BMP_pressure;BME280_temperature;BME280_humidity;BME280_pressure;Samples;Min_cycle;Max_cycle;Signal;HPM_P1;HPM_P2
2023/01/09 00:02:12;;;;;;;3.60;1.33;;;6.40;99.90;;;;;;5095153;28;20229;-94
2023/01/09 00:04:39;;;;;;;3.50;1.30;;;6.40;99.90;;;;;;5095051;28;20212;-95
2023/01/09 00:07:06;;;;;;;4.90;1.60;;;6.50;99.90;;;;;;5095341;28;20200;-93
2023/01/09 00:09:33;;;;;;;3.60;1.60;;;6.50;99.90;;;;;;5094781;28;20217;-94
2023/01/09 00:12:01;;;;;;;1.57;1.47;;;6.40;99.90;;;;;;5095689;28;20193;-92
2023/01/09 00:14:28;;;;;;;2.40;1.67;;;6.40;99.90;;;;;;5096733;28;20231;-94
2023/01/09 00:16:56;;;;;;;3.13;1.80;;;6.40;99.90;;;;;;5096246;28;20212;-94
2023/01/09 00:19:25;;;;;;;2.97;1.73;;;6.40;99.90;;;;;;5095836;28;20628;-94
2023/01/09 00:21:52;;;;;;;2.00;1.33;;;6.30;99.90;;;;;;5095340;28;20211;-93
2023/01/09 00:24:19;;;;;;;4.80;1.43;;;6.30;99.90;;;;;;5093827;28;20667;-93
2023/01/09 00:26:46;;;;;;;3.13;1.53;;;6.30;99.90;;;;;;5095383;28;20217;-92
2023/01/09 00:29:13;;;;;;;1.87;1.50;;;6.30;99.90;;;;;;5095248;28;20201;-95
2023/01/09 00:31:39;;;;;;;2.23;1.80;;;6.30;99.90;;;;;;5095618;28;20509;-96
2023/01/09 00:34:09;;;;;;;2.20;1.83;;;6.20;99.90;;;;;;5094852;28;20205;-92
2023/01/09 00:36:37;;;;;;;2.40;2.20;;;6.30;99.90;;;;;;5075832;28;20649;-91
2023/01/09 00:39:04;;;;;;;1.73;1.63;;;6.30;99.90;;;;;;5093939;28;20212;-91
2023/01/09 00:41:37;;;;;;;2.60;1.50;;;6.40;99.90;;;;;;5095535;28;20213;-94
2023/01/09 00:44:12;;;;;;;2.30;1.37;;;6.40;99.90;;;;;;5093841;28;20229;-94
2023/01/09 00:46:42;;;;;;;2.70;1.60;;;6.30;99.90;;;;;;5095070;28;20274;-95
2023/01/09 00:49:10;;;;;;;1.50;1.40;;;6.40;99.90;;;;;;5094394;28;20217;-92
2023/01/09 00:51:40;;;;;;;3.37;1.47;;;6.30;99.90;;;;;;5095547;28;20205;-93
2023/01/09 00:54:09;;;;;;;3.57;1.50;;;6.30;99.90;;;;;;5100753;28;20201;-95
2023/01/09 00:56:36;;;;;;;2.43;1.47;;;6.20;99.90;;;;;;5098257;28;20202;-94
2023/01/09 00:59:04;;;;;;;3.83;1.40;;;6.30;99.90;;;;;;5098682;28;20228;-95
2023/01/09 01:01:32;;;;;;;2.37;1.57;;;6.30;99.90;;;;;;5098088;28;20193;-93
2023/01/09 01:07:37;;;;;;;2.13;1.50;;;6.30;99.90;;;;;;5098105;28;20675;-94
2023/01/09 01:09:31;;;;;;;5.97;1.87;;;6.40;99.90;;;;;;5098350;28;20274;-93
2023/01/09 01:11:58;;;;;;;3.23;1.40;;;6.40;99.90;;;;;;5079442;28;20233;-93
2023/01/09 01:14:26;;;;;;;2.10;1.50;;;6.30;99.90;;;;;;5098785;28;20224;-93
2023/01/09 01:16:53;;;;;;;3.73;1.80;;;6.30;99.90;;;;;;5098726;28;20189;-91
2023/01/09 01:19:20;;;;;;;5.43;2.33;;;6.30;99.90;;;;;;5098758;28;20212;-94
2023/01/09 01:21:48;;;;;;;3.67;1.37;;;6.40;99.90;;;;;;5098139;28;20201;-95
2023/01/09 01:24:18;;;;;;;2.77;2.00;;;6.40;99.90;;;;;;5098029;28;20204;-94
2023/01/09 01:26:45;;;;;;;3.00;1.43;;;6.40;99.90;;;;;;5098076;28;20216;-95
2023/01/09 01:29:12;;;;;;;3.30;1.80;;;6.30;99.90;;;;;;5098347;28;20397;-94
2023/01/09 01:31:39;;;;;;;3.17;1.73;;;6.40;99.90;;;;;;5098918;28;20216;-93
2023/01/09 01:34:06;;;;;;;6.40;1.97;;;6.40;99.90;;;;;;5098176;28;20205;-94
2023/01/09 01:36:33;;;;;;;5.17;1.50;;;6.40;99.90;;;;;;5097790;28;20560;-94
2023/01/09 01:39:02;;;;;;;4.73;1.60;;;6.40;99.90;;;;;;5097271;28;20201;-93
2023/01/09 01:41:31;;;;;;;4.17;1.57;;;6.40;99.90;;;;;;5097639;28;20201;-94
2023/01/09 01:44:00;;;;;;;2.70;1.83;;;6.40;99.90;;;;;;5097389;28;20229;-92
2023/01/09 01:46:27;;;;;;;3.40;1.30;;;6.30;99.90;;;;;;5098174;28;20197;-95
2023/01/09 01:49:02;;;;;;;3.07;1.70;;;6.30;99.90;;;;;;5098118;28;20201;-93
2023/01/09 01:51:31;;;;;;;6.53;1.40;;;6.40;99.90;;;;;;5098462;28;20238;-93
2023/01/09 01:54:03;;;;;;;1.77;1.40;;;6.40;99.90;;;;;;5096807;28;20201;-93
2023/01/09 01:56:35;;;;;;;3.88;2.10;;;6.50;99.90;;;;;;5095185;28;20438;-95
2023/01/09 01:59:06;;;;;;;4.77;1.50;;;6.60;99.90;;;;;;5096111;28;20308;-95
2023/01/09 02:01:37;;;;;;;3.27;1.50;;;6.60;99.90;;;;;;5095993;28;20206;-95
2023/01/09 02:04:04;;;;;;;2.40;1.57;;;6.70;99.90;;;;;;5095717;28;20233;-93
2023/01/09 02:06:33;;;;;;;6.17;1.60;;;6.80;99.90;;;;;;5095966;28;20228;-96
2023/01/09 02:09:03;;;;;;;2.77;1.43;;;6.70;99.90;;;;;;5096045;28;20292;-95
2023/01/09 02:11:31;;;;;;;3.43;1.67;;;6.60;99.90;;;;;;5096772;28;20573;-94
2023/01/09 02:13:58;;;;;;;3.33;1.60;;;6.70;99.90;;;;;;5097272;28;20189;-95
2023/01/09 02:16:37;;;;;;;3.43;1.47;;;6.70;99.90;;;;;;5096242;28;20193;-93
2023/01/09 02:19:14;;;;;;;7.77;1.60;;;6.70;99.90;;;;;;5095986;28;20211;-93
2023/01/09 02:21:50;;;;;;;9.90;2.03;;;6.70;99.90;;;;;;5096121;28;20216;-94
2023/01/09 02:24:37;;;;;;;3.40;1.60;;;6.70;99.90;;;;;;5096217;28;20228;-93
2023/01/09 02:27:25;;;;;;;7.93;1.60;;;6.80;99.90;;;;;;5096982;28;20215;-96
2023/01/09 02:30:24;;;;;;;4.27;1.40;;;6.80;99.90;;;;;;5097322;28;20197;-94
2023/01/09 02:33:03;;;;;;;4.00;1.70;;;6.90;99.90;;;;;;5096216;28;20477;-94
2023/01/09 02:35:49;;;;;;;3.17;1.30;;;6.90;99.90;;;;;;5096452;28;20203;-93
2023/01/09 02:38:23;;;;;;;5.30;1.60;;;6.90;99.90;;;;;;5095296;28;20275;-93
2023/01/09 02:40:55;;;;;;;3.83;1.50;;;7.00;99.90;;;;;;5096027;28;20192;-93
2023/01/09 02:43:23;;;;;;;3.03;1.40;;;7.00;99.90;;;;;;5094791;28;20236;-94
2023/01/09 02:45:49;;;;;;;2.60;1.20;;;7.00;99.90;;;;;;5095752;28;20205;-92
2023/01/09 02:48:18;;;;;;;4.33;1.67;;;6.90;99.90;;;;;;5096037;28;20197;-91
2023/01/09 02:50:51;;;;;;;3.83;1.50;;;6.90;99.90;;;;;;5095958;28;20197;-92
2023/01/09 02:53:42;;;;;;;5.17;1.50;;;6.90;99.90;;;;;;5074772;28;20214;-95
2023/01/09 02:56:25;;;;;;;3.03;1.23;;;6.90;99.90;;;;;;5075349;28;20202;-93
2023/01/09 02:59:07;;;;;;;3.43;1.00;;;6.90;99.90;;;;;;5075129;28;20209;-93
2023/01/09 03:01:46;;;;;;;5.80;1.50;;;6.80;99.90;;;;;;5060343;28;20661;-93
2023/01/09 03:04:21;;;;;;;8.43;1.77;;;6.80;99.90;;;;;;5075675;28;20745;-92
2023/01/09 03:06:53;;;;;;;3.27;1.30;;;6.80;99.90;;;;;;5083435;28;20204;-94
2023/01/09 03:09:22;;;;;;;4.17;1.40;;;6.80;99.90;;;;;;5095314;28;20588;-95
2023/01/09 03:11:52;;;;;;;4.63;1.67;;;6.80;99.90;;;;;;5096108;28;20201;-92
2023/01/09 03:14:23;;;;;;;3.93;1.37;;;6.80;99.90;;;;;;5095925;28;20196;-93
2023/01/09 03:16:54;;;;;;;4.73;1.13;;;6.90;99.90;;;;;;5094570;28;20203;-94
2023/01/09 03:19:26;;;;;;;4.33;1.17;;;6.80;99.90;;;;;;5077558;28;20204;-94
2023/01/09 03:21:56;;;;;;;5.13;1.20;;;6.80;99.90;;;;;;5095563;28;20585;-93
2023/01/09 03:24:22;;;;;;;6.63;1.30;;;6.70;99.90;;;;;;5095540;28;20228;-94
2023/01/09 03:26:50;;;;;;;4.37;1.40;;;6.80;99.90;;;;;;5094542;28;20205;-93
2023/01/09 03:29:16;;;;;;;2.53;1.47;;;6.80;99.90;;;;;;5095347;28;20193;-93
2023/01/09 03:31:43;;;;;;;5.57;1.37;;;6.70;99.90;;;;;;5095721;28;20205;-93
2023/01/09 03:34:10;;;;;;;6.63;1.27;;;6.70;99.90;;;;;;5095628;28;20207;-95
2023/01/09 03:36:39;;;;;;;6.47;1.80;;;6.70;99.90;;;;;;5096427;28;20193;-92
2023/01/09 03:39:09;;;;;;;2.17;1.30;;;6.70;99.90;;;;;;5092243;28;20202;-93
2023/01/09 03:41:36;;;;;;;7.03;1.40;;;6.70;99.90;;;;;;5092075;28;20189;-93
2023/01/09 03:44:03;;;;;;;4.00;1.30;;;6.70;99.90;;;;;;5076824;28;20700;-94
2023/01/09 03:46:30;;;;;;;3.43;1.53;;;6.70;99.90;;;;;;5094819;28;20242;-94
2023/01/09 03:48:58;;;;;;;6.53;1.63;;;6.70;99.90;;;;;;5095458;28;20201;-93
2023/01/09 03:51:25;;;;;;;6.63;1.63;;;6.70;99.90;;;;;;5093991;28;20201;-94
2023/01/09 03:53:53;;;;;;;11.77;1.73;;;6.80;99.90;;;;;;5096207;28;20262;-92
2023/01/09 03:56:20;;;;;;;5.30;1.30;;;6.80;99.90;;;;;;5090231;28;20657;-91
2023/01/09 03:58:48;;;;;;;6.72;2.08;;;6.80;99.90;;;;;;5085912;28;20913;-94
2023/01/09 04:01:15;;;;;;;6.97;1.70;;;6.90;99.90;;;;;;5095986;28;20200;-93
2023/01/09 04:03:42;;;;;;;5.60;1.60;;;7.00;99.90;;;;;;5096250;28;20223;-93
2023/01/09 04:06:09;;;;;;;9.10;1.87;;;7.00;99.90;;;;;;5095496;28;20189;-92
2023/01/09 04:08:36;;;;;;;4.70;1.60;;;7.10;99.90;;;;;;5095523;28;20212;-91
2023/01/09 04:11:04;;;;;;;4.40;1.87;;;7.10;99.90;;;;;;5095341;28;20230;-93
2023/01/09 04:13:31;;;;;;;3.70;1.40;;;7.20;99.90;;;;;;5095453;28;20207;-91
2023/01/09 04:15:58;;;;;;;7.03;1.90;;;7.20;99.90;;;;;;5094675;28;20217;-90
2023/01/09 04:18:25;;;;;;;6.93;2.03;;;7.30;99.90;;;;;;5094892;28;20200;-93
2023/01/09 04:20:51;;;;;;;10.37;2.40;;;7.30;99.90;;;;;;5093942;28;20216;-94
2023/01/09 04:23:18;;;;;;;6.63;2.27;;;7.30;99.90;;;;;;5093736;28;20250;-94
2023/01/09 04:25:47;;;;;;;9.20;2.13;;;7.30;99.90;;;;;;5093251;28;20209;-92
2023/01/09 04:28:15;;;;;;;5.63;2.37;;;7.50;99.90;;;;;;5097494;28;20205;-93
2023/01/09 04:30:42;;;;;;;7.60;2.50;;;7.50;99.90;;;;;;5098187;28;20201;-95
2023/01/09 04:33:09;;;;;;;8.23;2.70;;;7.50;99.90;;;;;;5098131;28;20208;-93
2023/01/09 04:35:36;;;;;;;7.53;1.77;;;7.60;99.90;;;;;;5098206;28;20201;-93
2023/01/09 04:38:05;;;;;;;6.17;1.77;;;7.50;99.90;;;;;;5080854;28;20197;-95
2023/01/09 04:40:32;;;;;;;6.43;1.63;;;7.60;99.90;;;;;;5079728;28;20205;-94
2023/01/09 04:42:59;;;;;;;7.27;1.97;;;7.60;99.90;;;;;;5098378;28;20816;-92
2023/01/09 04:45:28;;;;;;;7.87;1.97;;;7.60;99.90;;;;;;5091973;28;20228;-94
2023/01/09 04:47:54;;;;;;;5.33;2.03;;;7.60;99.90;;;;;;5089348;28;20223;-92
2023/01/09 04:50:22;;;;;;;10.13;2.20;;;7.60;99.90;;;;;;5095948;28;20208;-95
2023/01/09 04:52:48;;;;;;;7.87;1.87;;;7.50;99.90;;;;;;5098331;28;20196;-93
2023/01/09 04:55:15;;;;;;;6.20;1.93;;;7.50;99.90;;;;;;5097422;28;20229;-93
2023/01/09 04:57:42;;;;;;;10.93;2.07;;;7.40;99.90;;;;;;5098566;28;20769;-93
2023/01/09 05:00:11;;;;;;;7.95;2.60;;;7.40;99.90;;;;;;5099067;28;20444;-91
2023/01/09 05:02:39;;;;;;;6.73;1.80;;;7.50;99.90;;;;;;5100107;28;20216;-93
2023/01/09 05:05:08;;;;;;;7.43;1.77;;;7.40;99.90;;;;;;5099365;28;20820;-93
2023/01/09 05:07:35;;;;;;;6.00;1.97;;;7.40;99.90;;;;;;5098773;28;20222;-93
2023/01/09 05:10:03;;;;;;;8.27;2.20;;;7.40;99.90;;;;;;5101087;28;20221;-92
2023/01/09 05:12:30;;;;;;;7.40;2.37;;;7.30;99.90;;;;;;5099655;28;20201;-95
2023/01/09 05:14:58;;;;;;;7.43;1.97;;;7.30;99.90;;;;;;5100003;28;20289;-93
2023/01/09 05:17:25;;;;;;;10.67;2.20;;;7.20;99.90;;;;;;5100590;28;20243;-92
2023/01/09 05:19:53;;;;;;;6.27;2.07;;;7.20;99.90;;;;;;5100702;28;20193;-91
2023/01/09 05:22:20;;;;;;;9.60;2.53;;;7.20;99.90;;;;;;5097489;28;20193;-91
2023/01/09 05:24:47;;;;;;;7.63;2.20;;;7.20;99.90;;;;;;5096050;28;20240;-92
2023/01/09 05:27:14;;;;;;;5.63;1.80;;;7.20;99.90;;;;;;5095535;28;20679;-90
2023/01/09 05:29:40;;;;;;;6.60;1.80;;;7.10;99.90;;;;;;5096393;28;20200;-90
2023/01/09 05:32:07;;;;;;;8.20;1.90;;;7.20;99.90;;;;;;5096153;28;20209;-90
2023/01/09 05:34:34;;;;;;;6.77;2.33;;;7.20;99.90;;;;;;5095673;28;20185;-90
2023/01/09 05:37:02;;;;;;;7.37;1.87;;;7.20;99.90;;;;;;5096080;28;20205;-90
2023/01/09 05:39:29;;;;;;;8.87;1.63;;;7.30;99.90;;;;;;5095044;28;20675;-89
2023/01/09 05:41:56;;;;;;;6.97;2.30;;;7.30;99.90;;;;;;5096001;28;20201;-91
2023/01/09 05:44:23;;;;;;;6.43;2.27;;;7.30;99.90;;;;;;5095501;28;20236;-92
2023/01/09 05:46:49;;;;;;;5.03;2.33;;;7.20;99.90;;;;;;5095487;28;20649;-90
2023/01/09 05:49:16;;;;;;;6.60;2.00;;;7.30;99.90;;;;;;5095755;28;20205;-89
2023/01/09 05:51:43;;;;;;;4.07;1.70;;;7.20;99.90;;;;;;5095322;28;20675;-90
2023/01/09 05:54:11;;;;;;;9.17;2.10;;;7.30;99.90;;;;;;5095834;28;20201;-91
2023/01/09 05:56:38;;;;;;;7.10;1.73;;;7.30;99.90;;;;;;5095454;28;20209;-90
2023/01/09 05:59:05;;;;;;;5.73;1.97;;;7.20;99.90;;;;;;5095693;28;20213;-91
2023/01/09 06:01:31;;;;;;;9.37;2.03;;;7.30;99.90;;;;;;5088099;28;20679;-92
2023/01/09 06:03:58;;;;;;;6.43;1.53;;;7.30;99.90;;;;;;5091416;28;20225;-89
2023/01/09 06:06:26;;;;;;;8.93;2.10;;;7.40;99.90;;;;;;5095418;28;20212;-90
2023/01/09 06:08:53;;;;;;;7.13;1.87;;;7.40;99.90;;;;;;5090761;28;20209;-89
2023/01/09 06:11:21;;;;;;;7.90;1.90;;;7.40;99.90;;;;;;5086967;28;20276;-90
2023/01/09 06:13:48;;;;;;;5.00;1.50;;;7.40;99.90;;;;;;5095268;28;20554;-90
2023/01/09 06:16:15;;;;;;;8.03;2.27;;;7.40;99.90;;;;;;5081919;28;20205;-90
2023/01/09 06:18:42;;;;;;;6.27;2.17;;;7.30;99.90;;;;;;5095082;28;20201;-89
2023/01/09 06:21:08;;;;;;;7.20;2.07;;;7.40;99.90;;;;;;5095096;28;20205;-90
2023/01/09 06:23:36;;;;;;;5.97;1.70;;;7.40;99.90;;;;;;5094607;28;20204;-90
2023/01/09 06:26:04;;;;;;;7.77;1.77;;;7.40;99.90;;;;;;5080824;28;20217;-91
2023/01/09 06:28:33;;;;;;;9.57;1.63;;;7.50;99.90;;;;;;5082134;28;20201;-92
2023/01/09 06:31:00;;;;;;;6.40;1.80;;;7.50;99.90;;;;;;5093767;28;20210;-91
2023/01/09 06:33:27;;;;;;;4.67;1.70;;;7.40;99.90;;;;;;5085950;28;20211;-91
2023/01/09 06:35:53;;;;;;;3.90;1.50;;;7.40;99.90;;;;;;5088870;28;20197;-89
2023/01/09 06:38:20;;;;;;;6.37;1.40;;;7.40;99.90;;;;;;5090353;28;20201;-92
2023/01/09 06:40:47;;;;;;;3.57;1.60;;;7.50;99.90;;;;;;5094520;28;21169;-90
2023/01/09 06:43:15;;;;;;;7.63;1.93;;;7.50;99.90;;;;;;5094194;28;20201;-88
2023/01/09 06:45:43;;;;;;;8.07;1.90;;;7.50;99.90;;;;;;5093572;28;20211;-88
2023/01/09 06:48:10;;;;;;;8.97;1.97;;;7.50;99.90;;;;;;5093882;28;20201;-88
2023/01/09 06:50:37;;;;;;;6.00;1.57;;;7.60;99.90;;;;;;5093246;28;20201;-89
2023/01/09 06:53:04;;;;;;;6.57;1.57;;;7.60;99.90;;;;;;5093466;28;20212;-89
2023/01/09 06:55:31;;;;;;;6.40;1.40;;;7.70;99.90;;;;;;5093014;28;20683;-87
2023/01/09 06:57:57;;;;;;;5.57;1.43;;;7.70;99.90;;;;;;5093509;28;20575;-87
2023/01/09 07:00:26;;;;;;;7.13;1.60;;;7.60;99.90;;;;;;5092970;28;20203;-86
2023/01/09 07:02:55;;;;;;;3.07;1.50;;;7.50;99.90;;;;;;5093990;28;20230;-87
2023/01/09 07:05:22;;;;;;;5.47;1.37;;;7.50;99.90;;;;;;5092317;28;20220;-90
2023/01/09 07:07:49;;;;;;;4.40;1.20;;;7.60;99.90;;;;;;5090500;28;20201;-89
2023/01/09 07:10:16;;;;;;;6.77;1.80;;;7.60;99.90;;;;;;5093723;28;20255;-87
2023/01/09 07:12:43;;;;;;;3.57;1.53;;;7.60;99.90;;;;;;5092475;28;20201;-91
2023/01/09 07:15:10;;;;;;;5.53;1.77;;;7.60;99.90;;;;;;5066789;28;20562;-88
2023/01/09 07:17:37;;;;;;;4.23;1.23;;;7.60;99.90;;;;;;5086137;28;20209;-90
2023/01/09 07:20:07;;;;;;;6.87;1.70;;;7.60;99.90;;;;;;5094037;28;20208;-93
2023/01/09 07:22:33;;;;;;;6.17;1.40;;;7.60;99.90;;;;;;5092175;28;20230;-89
2023/01/09 07:25:00;;;;;;;19.67;9.77;;;7.70;99.90;;;;;;5085768;28;20228;-91
2023/01/09 07:27:27;;;;;;;11.07;4.13;;;7.70;99.90;;;;;;5093597;28;20227;-89
2023/01/09 07:29:55;;;;;;;4.73;1.87;;;7.60;99.90;;;;;;5092953;28;20201;-91
2023/01/09 07:32:21;;;;;;;4.77;1.30;;;7.60;99.90;;;;;;5079902;28;20209;-90
2023/01/09 07:34:50;;;;;;;4.70;1.73;;;7.60;99.90;;;;;;5092962;28;20201;-88
2023/01/09 07:37:18;;;;;;;4.87;1.30;;;7.60;99.90;;;;;;5092724;28;20203;-89
2023/01/09 07:39:45;;;;;;;6.83;1.60;;;7.60;99.90;;;;;;5093252;28;20566;-90
2023/01/09 07:42:13;;;;;;;4.10;1.47;;;7.60;99.90;;;;;;5078560;28;20198;-87
2023/01/09 07:44:39;;;;;;;4.63;1.10;;;7.60;99.90;;;;;;5092462;28;20588;-90
2023/01/09 07:47:06;;;;;;;4.37;1.53;;;7.70;99.90;;;;;;5092866;28;20201;-92
2023/01/09 07:49:33;;;;;;;8.03;2.07;;;7.60;99.90;;;;;;5091868;28;20197;-90
2023/01/09 07:52:00;;;;;;;6.27;1.87;;;7.70;99.90;;;;;;5093126;28;20209;-89
2023/01/09 07:54:28;;;;;;;4.53;1.60;;;7.80;99.90;;;;;;5092859;28;20791;-90
2023/01/09 07:56:55;;;;;;;4.13;1.23;;;7.80;99.90;;;;;;5092158;28;20680;-88
2023/01/09 07:59:22;;;;;;;2.73;1.50;;;7.80;99.90;;;;;;5092381;28;20193;-88
2023/01/09 08:01:49;;;;;;;5.83;1.73;;;7.80;99.90;;;;;;5093955;28;20197;-89
2023/01/09 08:04:16;;;;;;;6.20;1.80;;;7.90;99.90;;;;;;5092062;28;20194;-88
2023/01/09 08:06:42;;;;;;;5.63;1.70;;;7.80;99.90;;;;;;5087187;28;20640;-89
2023/01/09 08:09:09;;;;;;;6.72;2.20;;;7.90;99.90;;;;;;5093979;28;20438;-88
2023/01/09 08:11:38;;;;;;;3.90;1.60;;;7.90;99.90;;;;;;5095072;28;20197;-89
2023/01/09 08:14:06;;;;;;;3.53;1.47;;;8.00;99.90;;;;;;5095918;28;20204;-91
2023/01/09 08:16:32;;;;;;;5.23;1.63;;;7.90;99.90;;;;;;5096728;28;20201;-91
2023/01/09 08:18:59;;;;;;;4.47;1.60;;;8.00;99.90;;;;;;5095977;28;20197;-89
2023/01/09 08:21:26;;;;;;;4.00;1.43;;;7.90;99.90;;;;;;5084384;28;20197;-89
2023/01/09 08:23:53;;;;;;;4.33;1.50;;;8.00;99.90;;;;;;5097083;28;20209;-90
2023/01/09 08:26:19;;;;;;;5.20;1.40;;;8.00;99.90;;;;;;5096371;28;20251;-89
2023/01/09 08:28:48;;;;;;;3.23;1.50;;;7.90;99.90;;;;;;5097034;28;20205;-90
2023/01/09 08:31:15;;;;;;;5.10;1.87;;;7.90;99.90;;;;;;5096190;28;20266;-89
2023/01/09 08:33:43;;;;;;;5.80;1.90;;;7.90;99.90;;;;;;5096444;28;20673;-88
2023/01/09 08:36:10;;;;;;;3.83;1.63;;;7.90;99.90;;;;;;5083291;28;20201;-89
2023/01/09 08:38:37;;;;;;;2.63;1.37;;;7.90;99.90;;;;;;5096109;28;20209;-89
2023/01/09 08:47:04;;;;;;;4.47;1.73;;;8.00;99.90;;;;;;5081840;28;20416;-89
2023/01/09 08:49:21;;;;;;;3.13;1.43;;;8.10;99.90;;;;;;5093422;28;20314;-88
2023/01/09 08:51:49;;;;;;;1.77;0.90;;;8.10;99.90;;;;;;5093329;28;20619;-91
2023/01/09 08:54:16;;;;;;;4.37;1.53;;;7.90;99.90;;;;;;5096320;28;20566;-90
2023/01/09 08:56:43;;;;;;;4.33;1.43;;;8.00;99.90;;;;;;5095733;28;20201;-90
2023/01/09 08:59:11;;;;;;;4.60;1.50;;;8.10;99.90;;;;;;5094058;28;20580;-91
2023/01/09 09:01:38;;;;;;;3.33;1.43;;;8.00;99.90;;;;;;5093645;28;20211;-91
2023/01/09 09:04:05;;;;;;;4.43;1.40;;;8.00;99.90;;;;;;5093510;28;20197;-89
2023/01/09 09:06:32;;;;;;;2.10;1.00;;;7.80;99.90;;;;;;5096131;28;20233;-91
2023/01/09 09:09:01;;;;;;;3.13;0.80;;;7.80;99.90;;;;;;5095267;28;20660;-91
2023/01/09 09:11:29;;;;;;;2.43;1.27;;;7.80;99.90;;;;;;5094996;28;20288;-91
2023/01/09 09:13:55;;;;;;;2.87;1.00;;;7.70;99.90;;;;;;5095658;28;20205;-90
2023/01/09 09:16:24;;;;;;;2.47;0.90;;;7.70;99.90;;;;;;5095985;28;20212;-89
2023/01/09 09:18:51;;;;;;;3.50;1.37;;;7.70;99.90;;;;;;5093895;28;20208;-89
2023/01/09 09:21:17;;;;;;;2.07;1.30;;;7.70;99.90;;;;;;5092673;28;20198;-89
2023/01/09 09:23:44;;;;;;;2.73;1.30;;;7.80;99.90;;;;;;5088801;28;20577;-90
2023/01/09 09:26:11;;;;;;;2.90;1.30;;;7.80;99.90;;;;;;5086004;28;20233;-90
2023/01/09 09:28:39;;;;;;;1.50;1.20;;;7.70;99.90;;;;;;5091723;28;20217;-89
2023/01/09 09:31:07;;;;;;;3.87;1.60;;;7.70;99.90;;;;;;5087245;28;20279;-90
2023/01/09 09:33:35;;;;;;;4.00;1.20;;;7.80;99.90;;;;;;5092706;28;20198;-90
2023/01/09 09:36:02;;;;;;;3.63;1.57;;;7.80;99.90;;;;;;5094504;28;20197;-90
2023/01/09 09:38:29;;;;;;;4.87;1.87;;;7.90;99.90;;;;;;5094410;28;20612;-88
2023/01/09 09:44:46;;;;;;;5.05;2.25;;;7.90;99.90;;;;;;5090566;28;20427;-89
2023/01/09 09:47:26;;;;;;;2.97;1.73;;;8.00;99.90;;;;;;5089932;28;20270;-88
2023/01/09 09:50:10;;;;;;;4.30;2.00;;;8.00;99.90;;;;;;5083809;28;20208;-88
2023/01/09 09:52:44;;;;;;;1.67;1.40;;;8.00;99.90;;;;;;5081573;28;20207;-87
2023/01/09 09:55:17;;;;;;;4.80;2.37;;;8.10;99.90;;;;;;5092232;28;20208;-88
2023/01/09 09:57:46;;;;;;;4.97;2.10;;;8.10;99.90;;;;;;5093197;28;20212;-88
2023/01/09 10:00:18;;;;;;;9.20;2.20;;;8.10;99.90;;;;;;5093794;28;20201;-90
2023/01/09 10:02:50;;;;;;;4.90;2.33;;;8.10;99.90;;;;;;5093882;28;20212;-88
2023/01/09 10:05:25;;;;;;;4.07;2.27;;;8.10;99.90;;;;;;5091872;28;20221;-86
2023/01/09 10:07:53;;;;;;;4.63;2.00;;;8.00;99.90;;;;;;5092362;28;20577;-88
2023/01/09 10:10:29;;;;;;;2.70;1.83;;;8.10;99.90;;;;;;5076217;28;20229;-90
2023/01/09 10:12:57;;;;;;;8.57;3.07;;;8.10;99.90;;;;;;5089205;28;20212;-89
2023/01/09 10:15:33;;;;;;;4.82;2.63;;;8.10;99.90;;;;;;5092259;28;20431;-88
2023/01/09 10:18:14;;;;;;;4.90;1.87;;;8.10;99.90;;;;;;5092551;28;20192;-91
2023/01/09 10:20:56;;;;;;;6.47;1.90;;;8.20;99.90;;;;;;5095515;28;20197;-95
2023/01/09 10:23:46;;;;;;;3.87;1.57;;;8.10;99.90;;;;;;5086349;28;20205;-91
2023/01/09 10:26:20;;;;;;;7.33;1.63;;;8.00;99.90;;;;;;5093181;28;20322;-92
2023/01/09 10:29:08;;;;;;;3.27;1.43;;;8.10;99.90;;;;;;5074038;28;20566;-89
2023/01/09 10:31:43;;;;;;;6.50;1.70;;;8.10;99.90;;;;;;5092060;28;20212;-89
2023/01/09 10:34:23;;;;;;;4.23;1.63;;;8.10;99.90;;;;;;5094600;28;20200;-88
2023/01/09 10:37:00;;;;;;;2.70;1.20;;;8.10;99.90;;;;;;5087856;28;20671;-91
2023/01/09 10:39:35;;;;;;;4.70;1.20;;;8.00;99.90;;;;;;5094846;28;20208;-92
2023/01/09 10:42:10;;;;;;;4.47;1.03;;;8.00;99.90;;;;;;5090113;28;20212;-91
2023/01/09 10:44:45;;;;;;;4.57;1.17;;;8.00;99.90;;;;;;5092818;28;20193;-89
2023/01/09 10:47:16;;;;;;;4.27;1.40;;;8.00;99.90;;;;;;5092929;28;20227;-88
2023/01/09 10:49:45;;;;;;;4.37;1.10;;;7.90;99.90;;;;;;5092839;28;20208;-87
2023/01/09 10:52:17;;;;;;;3.10;1.27;;;8.10;99.90;;;;;;5093177;28;20211;-89
2023/01/09 10:54:53;;;;;;;2.70;0.80;;;8.20;99.90;;;;;;5094211;28;20292;-88
2023/01/09 10:57:34;;;;;;;2.63;1.30;;;8.20;99.90;;;;;;5093674;28;20218;-88
2023/01/09 11:00:01;;;;;;;5.57;1.20;;;8.20;99.90;;;;;;5093936;28;20201;-88
2023/01/09 11:02:30;;;;;;;3.63;1.00;;;8.20;99.90;;;;;;5092386;28;20205;-89
2023/01/09 11:04:57;;;;;;;1.33;1.00;;;8.20;99.90;;;;;;5082931;28;20497;-88
2023/01/09 11:07:29;;;;;;;4.17;1.27;;;8.20;99.90;;;;;;5092728;28;20229;-87
2023/01/09 11:09:57;;;;;;;3.90;1.30;;;8.40;99.90;;;;;;5093267;28;20213;-88
2023/01/09 11:12:25;;;;;;;3.10;1.30;;;8.50;99.90;;;;;;5093555;28;20195;-87
2023/01/09 11:14:52;;;;;;;3.50;1.50;;;8.40;99.90;;;;;;5093382;28;20189;-88
2023/01/09 11:17:20;;;;;;;3.00;1.50;;;8.40;99.90;;;;;;5093687;28;20213;-88
2023/01/09 11:20:02;;;;;;;3.37;1.50;;;8.40;99.90;;;;;;5093235;28;20219;-86
2023/01/09 11:22:42;;;;;;;3.83;1.20;;;8.40;99.90;;;;;;5090635;28;20215;-88
2023/01/09 11:25:13;;;;;;;3.20;1.20;;;8.40;99.90;;;;;;5093398;28;20208;-87
2023/01/09 11:27:40;;;;;;;3.97;1.20;;;8.40;99.90;;;;;;5093021;28;20209;-90
2023/01/09 11:30:26;;;;;;;1.47;1.17;;;8.40;99.90;;;;;;5075915;28;20683;-88
2023/01/09 11:32:54;;;;;;;2.90;1.83;;;8.30;99.90;;;;;;5093579;28;20209;-90
2023/01/09 11:35:25;;;;;;;4.13;1.63;;;8.20;99.90;;;;;;5093303;28;20216;-92
2023/01/09 11:38:03;;;;;;;3.23;1.63;;;8.20;99.90;;;;;;5092729;28;20211;-91
2023/01/09 11:40:37;;;;;;;5.50;1.37;;;8.20;99.90;;;;;;5093512;28;20197;-88
2023/01/09 11:43:13;;;;;;;3.90;1.47;;;8.30;99.90;;;;;;5092888;28;20189;-87
2023/01/09 11:45:49;;;;;;;3.57;1.57;;;8.40;99.90;;;;;;5093297;28;20239;-87
2023/01/09 11:48:36;;;;;;;5.33;1.60;;;8.40;99.90;;;;;;5093472;28;20189;-88
2023/01/09 11:51:06;;;;;;;5.03;1.70;;;8.50;99.90;;;;;;5092890;28;20656;-88
2023/01/09 11:54:01;;;;;;;3.17;1.40;;;8.60;99.90;;;;;;5093153;28;20185;-88
2023/01/09 11:56:28;;;;;;;3.43;1.60;;;8.60;99.90;;;;;;5073244;28;20686;-89
2023/01/09 11:58:54;;;;;;;5.37;1.77;;;8.60;99.90;;;;;;5072361;28;20581;-88
2023/01/09 12:01:37;;;;;;;9.37;2.33;;;8.80;99.90;;;;;;5088253;28;20212;-88
2023/01/09 12:04:22;;;;;;;5.07;2.10;;;8.70;99.90;;;;;;5092317;28;20205;-88
2023/01/09 12:07:01;;;;;;;7.17;1.80;;;8.70;99.90;;;;;;5092628;28;20228;-87
2023/01/09 12:09:39;;;;;;;4.20;1.73;;;8.80;99.90;;;;;;5086422;28;20228;-90
2023/01/09 12:12:15;;;;;;;6.60;1.40;;;8.70;99.90;;;;;;5072904;28;20217;-89
2023/01/09 12:14:54;;;;;;;9.60;1.80;;;8.70;99.90;;;;;;5072667;28;20198;-88
2023/01/09 12:17:54;;;;;;;5.40;1.57;;;8.90;99.90;;;;;;5073003;28;20568;-91
2023/01/09 12:20:45;;;;;;;8.47;1.77;;;8.90;99.90;;;;;;5056848;28;20216;-90
2023/01/09 12:23:24;;;;;;;6.33;2.20;;;8.90;99.90;;;;;;5072614;28;20304;-90
2023/01/09 12:26:01;;;;;;;4.13;1.90;;;8.90;99.90;;;;;;5072713;28;20233;-89
2023/01/09 12:28:50;;;;;;;7.77;2.13;;;9.00;99.90;;;;;;5073337;28;20205;-88
2023/01/09 12:31:30;;;;;;;11.90;2.20;;;9.00;99.90;;;;;;5072767;28;20190;-89
2023/01/09 12:34:11;;;;;;;10.17;2.20;;;9.00;99.90;;;;;;5073216;28;20567;-92
2023/01/09 12:36:47;;;;;;;9.73;2.30;;;9.00;99.90;;;;;;5067103;28;20228;-91
2023/01/09 12:39:28;;;;;;;4.83;2.20;;;9.10;99.90;;;;;;5072780;28;20202;-92
2023/01/09 12:42:18;;;;;;;6.28;2.53;;;9.10;99.90;;;;;;5076033;28;20445;-91
2023/01/09 12:44:55;;;;;;;8.53;2.30;;;9.10;99.90;;;;;;5072750;28;21018;-92
2023/01/09 12:47:45;;;;;;;7.33;1.97;;;9.20;99.90;;;;;;5073005;28;20346;-91
2023/01/09 12:50:49;;;;;;;9.20;2.53;;;9.20;99.90;;;;;;5076881;28;20205;-92
2023/01/09 12:53:21;;;;;;;11.17;2.23;;;9.20;99.90;;;;;;5076549;28;20212;-91
2023/01/09 12:55:55;;;;;;;6.57;2.50;;;9.10;99.90;;;;;;5066798;28;20280;-93
2023/01/09 12:58:33;;;;;;;6.50;2.40;;;9.20;99.90;;;;;;5076596;28;20212;-92
2023/01/09 13:01:02;;;;;;;7.73;2.73;;;9.10;99.90;;;;;;5095752;28;20197;-93
2023/01/09 13:03:34;;;;;;;7.13;3.03;;;9.10;99.90;;;;;;5093908;28;20562;-92
2023/01/09 13:06:02;;;;;;;11.13;2.70;;;9.10;99.90;;;;;;5096726;28;20216;-90
2023/01/09 13:08:31;;;;;;;6.93;2.30;;;9.10;99.90;;;;;;5096812;28;20216;-91
2023/01/09 13:11:05;;;;;;;8.97;2.37;;;9.20;99.90;;;;;;5096964;28;20221;-90
2023/01/09 13:13:41;;;;;;;7.57;3.13;;;9.20;99.90;;;;;;5097166;28;20201;-92
2023/01/09 13:16:15;;;;;;;6.53;2.90;;;9.20;99.90;;;;;;5096181;28;20213;-93
2023/01/09 13:18:46;;;;;;;8.97;2.80;;;9.20;99.90;;;;;;5096674;28;20319;-92
2023/01/09 13:21:14;;;;;;;13.63;3.90;;;9.30;99.90;;;;;;5096614;28;20565;-93
2023/01/09 13:23:47;;;;;;;10.33;3.00;;;9.30;99.90;;;;;;5096396;28;20198;-92
2023/01/09 13:26:19;;;;;;;9.93;2.73;;;9.40;99.90;;;;;;5096086;28;20236;-92
2023/01/09 13:28:52;;;;;;;12.93;3.37;;;9.40;99.90;;;;;;5096746;28;20193;-90